Time;durP1;ratioP1;P1;durP2;ratioP2;P2;SDS_P1;SDS_P2;PMS_P1;PMS_P2;Temp;Humidity;BMP_temperature;BMP_pressure;BME280_temperature;BME280_humidity;BME280_pressure;Samples;Min_cycle;Max_cycle;Signal;HPM_P1;HPM_P2
2022/11/24 00:01:14;;;;;;;108.93;52.63;;;4.20;99.90;;;;;;5072895;28;20196;-49
2022/11/24 00:03:41;;;;;;;112.28;50.75;;;3.90;99.90;;;;;;5073152;28;20199;-50
2022/11/24 00:06:09;;;;;;;112.55;51.85;;;4.40;99.90;;;;;;5055204;28;20249;-49
2022/11/24 00:08:37;;;;;;;137.45;53.15;;;4.40;99.90;;;;;;5072481;28;20213;-47
2022/11/24 00:11:05;;;;;;;111.88;51.47;;;4.50;99.90;;;;;;5073340;28;20202;-48
2022/11/24 00:13:33;;;;;;;90.50;50.13;;;4.40;99.90;;;;;;5073184;28;20653;-48
2022/11/24 00:16:08;;;;;;;85.93;49.85;;;4.40;99.90;;;;;;5072889;28;20222;-48
2022/11/24 00:18:36;;;;;;;103.57;51.92;;;4.50;99.90;;;;;;5072087;28;20191;-48
2022/11/24 00:21:03;;;;;;;94.00;51.42;;;4.50;99.90;;;;;;5072997;28;20200;-48
2022/11/24 00:23:30;;;;;;;99.60;51.22;;;4.40;99.90;;;;;;5073474;28;20226;-49
2022/11/24 00:26:03;;;;;;;104.75;51.10;;;4.40;99.90;;;;;;5072762;28;20276;-48
2022/11/24 00:28:30;;;;;;;94.10;53.03;;;4.50;99.90;;;;;;5072306;28;20680;-48
2022/11/24 00:30:56;;;;;;;92.30;53.28;;;4.50;99.90;;;;;;5072516;28;20199;-48
2022/11/24 00:33:23;;;;;;;89.15;53.08;;;4.20;99.90;;;;;;5054684;28;20210;-48
2022/11/24 00:35:55;;;;;;;85.90;52.88;;;4.40;99.90;;;;;;5072469;28;20215;-48
2022/11/24 00:38:22;;;;;;;90.85;53.47;;;4.80;99.90;;;;;;5072385;28;20227;-47
2022/11/24 00:40:49;;;;;;;96.18;51.80;;;4.40;99.90;;;;;;5072090;28;20206;-48
2022/11/24 00:43:16;;;;;;;101.88;53.03;;;4.80;99.90;;;;;;5071595;28;20218;-48
2022/11/24 00:45:42;;;;;;;82.47;50.10;;;4.50;99.90;;;;;;5072237;28;20622;-48
2022/11/24 00:48:09;;;;;;;92.05;52.47;;;4.50;99.90;;;;;;5072146;28;20203;-48
2022/11/24 00:50:36;;;;;;;94.97;50.75;;;4.60;99.90;;;;;;5071804;28;20199;-47
2022/11/24 00:53:04;;;;;;;114.57;52.63;;;5.20;99.90;;;;;;5072497;28;20198;-48
2022/11/24 00:55:30;;;;;;;85.43;48.72;;;4.50;99.90;;;;;;5072151;28;20219;-48
2022/11/24 00:57:57;;;;;;;92.68;52.15;;;4.30;99.90;;;;;;5072165;28;20594;-48
2022/11/24 01:00:23;;;;;;;93.28;52.35;;;4.50;99.90;;;;;;5071660;28;20199;-47
2022/11/24 01:02:50;;;;;;;96.05;51.03;;;4.70;99.90;;;;;;5071899;28;20590;-48
2022/11/24 01:05:16;;;;;;;92.70;51.50;;;4.60;99.90;;;;;;5072033;28;20215;-48
2022/11/24 01:07:43;;;;;;;89.43;53.00;;;4.50;99.90;;;;;;5072077;28;20656;-48
2022/11/24 01:10:11;;;;;;;87.63;51.90;;;4.60;99.90;;;;;;5071692;28;20197;-48
2022/11/24 01:12:38;;;;;;;80.15;50.45;;;4.40;99.90;;;;;;5071949;28;20245;-48
2022/11/24 01:15:05;;;;;;;90.60;51.42;;;4.60;99.90;;;;;;5072240;28;20219;-48
2022/11/24 01:17:32;;;;;;;95.50;54.08;;;4.50;99.90;;;;;;5071923;28;20195;-47
2022/11/24 01:19:58;;;;;;;86.53;53.30;;;4.70;99.90;;;;;;5071273;28;20210;-48
2022/11/24 01:22:26;;;;;;;90.75;51.42;;;4.70;99.90;;;;;;5071822;28;20211;-47
2022/11/24 01:24:52;;;;;;;92.65;52.28;;;4.60;99.90;;;;;;5053830;28;20262;-48
2022/11/24 01:27:20;;;;;;;99.50;53.33;;;4.40;99.90;;;;;;5071879;28;20725;-48
2022/11/24 01:29:47;;;;;;;85.53;53.78;;;4.60;99.90;;;;;;5071115;28;20660;-48
2022/11/24 01:32:13;;;;;;;98.43;52.33;;;4.70;99.90;;;;;;5071755;28;20730;-48
2022/11/24 01:34:40;;;;;;;98.65;52.08;;;4.60;99.90;;;;;;5071871;28;20230;-48
2022/11/24 01:37:06;;;;;;;93.50;52.28;;;4.30;99.90;;;;;;5071911;28;20199;-48
2022/11/24 01:39:33;;;;;;;104.07;50.75;;;4.70;99.90;;;;;;5071128;28;20199;-48
2022/11/24 01:42:01;;;;;;;94.97;50.90;;;4.60;99.90;;;;;;5071598;28;20222;-48
2022/11/24 01:44:30;;;;;;;90.57;51.42;;;3.90;99.90;;;;;;5071607;28;20222;-48
2022/11/24 01:47:00;;;;;;;86.78;49.22;;;4.70;99.90;;;;;;5071524;28;20203;-48
2022/11/24 01:49:35;;;;;;;76.88;48.47;;;4.60;99.90;;;;;;5053121;28;20230;-49
2022/11/24 01:52:07;;;;;;;84.00;48.90;;;4.70;99.90;;;;;;5071630;28;20199;-48
2022/11/24 01:54:38;;;;;;;86.50;45.72;;;4.60;99.90;;;;;;5056462;28;20223;-48
2022/11/24 01:57:09;;;;;;;80.00;45.45;;;4.60;99.90;;;;;;5075715;28;20619;-48
2022/11/24 01:59:37;;;;;;;80.78;46.55;;;5.20;99.90;;;;;;5074849;28;20195;-49
2022/11/24 02:02:05;;;;;;;84.13;47.83;;;4.50;99.90;;;;;;5075281;28;20219;-48
2022/11/24 02:04:33;;;;;;;81.85;48.53;;;4.50;99.90;;;;;;5075370;28;20223;-49
2022/11/24 02:07:03;;;;;;;80.57;46.05;;;4.50;99.90;;;;;;5075393;28;20199;-48
2022/11/24 02:09:35;;;;;;;95.57;48.78;;;4.60;99.90;;;;;;5074630;28;20203;-49
2022/11/24 02:12:03;;;;;;;74.13;46.25;;;4.40;99.90;;;;;;5075256;28;20592;-48
2022/11/24 02:14:29;;;;;;;89.65;49.42;;;4.50;99.90;;;;;;5075180;28;20231;-48
2022/11/24 02:16:57;;;;;;;81.88;46.30;;;4.70;99.90;;;;;;5075114;28;20594;-48
2022/11/24 02:19:36;;;;;;;73.57;45.65;;;4.30;99.90;;;;;;5074271;28;20199;-48
2022/11/24 02:22:04;;;;;;;92.28;48.85;;;4.60;99.90;;;;;;5075054;28;20562;-48
2022/11/24 02:24:38;;;;;;;72.72;46.35;;;4.50;99.90;;;;;;5074864;28;20231;-48
2022/11/24 02:27:06;;;;;;;101.78;48.10;;;4.80;99.90;;;;;;5075455;28;20229;-48
2022/11/24 02:29:33;;;;;;;82.75;45.40;;;4.70;99.90;;;;;;5074272;28;20196;-48
2022/11/24 02:32:04;;;;;;;77.70;45.60;;;4.60;99.90;;;;;;5056871;28;20635;-48
2022/11/24 02:34:31;;;;;;;80.85;44.08;;;4.60;99.90;;;;;;5074843;28;20231;-47
2022/11/24 02:36:57;;;;;;;80.18;43.58;;;4.50;99.90;;;;;;5074753;28;20195;-48
2022/11/24 02:39:24;;;;;;;74.90;45.88;;;4.50;99.90;;;;;;5074187;28;20249;-48
2022/11/24 02:41:54;;;;;;;97.10;49.03;;;4.60;99.90;;;;;;5074750;28;20202;-49
2022/11/24 02:44:27;;;;;;;72.90;43.42;;;4.70;99.90;;;;;;5074465;28;20234;-48
2022/11/24 02:47:02;;;;;;;81.35;43.60;;;4.50;99.90;;;;;;5074628;28;20202;-48
2022/11/24 02:49:28;;;;;;;77.32;42.08;;;4.60;99.90;;;;;;5074018;28;20218;-48
2022/11/24 02:51:55;;;;;;;76.15;44.97;;;4.50;99.90;;;;;;5074605;28;20199;-49
2022/11/24 02:54:22;;;;;;;72.75;44.45;;;4.60;99.90;;;;;;5074444;28;20230;-49
2022/11/24 02:56:49;;;;;;;73.78;44.03;;;4.60;99.90;;;;;;5074502;28;20200;-48
2022/11/24 02:59:15;;;;;;;91.25;46.17;;;4.40;99.90;;;;;;5074036;28;20195;-48
2022/11/24 03:01:43;;;;;;;85.10;45.95;;;4.40;99.90;;;;;;5074941;28;20203;-48
2022/11/24 03:04:10;;;;;;;90.47;44.55;;;4.60;99.90;;;;;;5074455;28;20231;-48
2022/11/24 03:06:36;;;;;;;89.50;45.60;;;3.80;99.90;;;;;;5073858;28;20596;-48
2022/11/24 03:09:03;;;;;;;94.55;46.75;;;4.50;99.90;;;;;;5073673;28;20200;-48
2022/11/24 03:11:30;;;;;;;79.65;42.50;;;4.60;99.90;;;;;;5074072;28;20204;-48
2022/11/24 03:13:56;;;;;;;80.88;44.08;;;4.70;99.90;;;;;;5074390;28;20202;-49
2022/11/24 03:16:23;;;;;;;78.28;42.95;;;4.70;99.90;;;;;;5074069;28;20226;-49
2022/11/24 03:18:52;;;;;;;78.70;41.47;;;4.50;99.90;;;;;;5073540;28;20207;-48
2022/11/24 03:21:19;;;;;;;72.68;43.17;;;4.40;99.90;;;;;;5074056;28;20656;-48
2022/11/24 03:23:46;;;;;;;73.60;42.20;;;4.40;99.90;;;;;;5073772;28;20218;-48
2022/11/24 03:26:15;;;;;;;71.82;42.78;;;4.40;99.90;;;;;;5073690;28;20226;-48
2022/11/24 03:28:42;;;;;;;73.07;44.35;;;4.60;99.90;;;;;;5073228;28;20265;-48
2022/11/24 03:31:09;;;;;;;71.95;42.85;;;4.00;99.90;;;;;;5073857;28;20207;-48
2022/11/24 03:33:36;;;;;;;74.20;43.92;;;4.70;99.90;;;;;;5074001;28;20592;-48
2022/11/24 03:36:06;;;;;;;75.22;43.08;;;4.50;99.90;;;;;;5073812;28;20250;-48
2022/11/24 03:38:33;;;;;;;88.18;43.30;;;4.80;99.90;;;;;;5073087;28;20199;-49
2022/11/24 03:40:59;;;;;;;68.95;41.25;;;4.70;99.90;;;;;;5073779;28;20664;-48
2022/11/24 03:43:26;;;;;;;70.45;40.85;;;4.60;99.90;;;;;;5073813;28;20272;-48
2022/11/24 03:45:52;;;;;;;72.97;42.25;;;4.30;99.90;;;;;;5073724;28;20226;-48
2022/11/24 03:48:20;;;;;;;74.05;40.33;;;4.40;99.90;;;;;;5073691;28;20218;-48
2022/11/24 03:50:53;;;;;;;76.25;39.88;;;4.30;99.90;;;;;;5073503;28;20532;-48
2022/11/24 03:53:21;;;;;;;71.18;39.35;;;4.40;99.90;;;;;;5074144;28;20233;-46
2022/11/24 03:55:48;;;;;;;70.45;38.67;;;4.50;99.90;;;;;;5074012;28;20218;-48
2022/11/24 03:58:15;;;;;;;65.75;38.40;;;4.60;99.90;;;;;;5074152;28;20199;-47
2022/11/24 04:00:41;;;;;;;63.28;37.83;;;4.70;99.90;;;;;;5055122;28;20660;-48
2022/11/24 04:03:08;;;;;;;76.82;41.78;;;4.40;99.90;;;;;;5073496;28;20218;-48
2022/11/24 04:05:35;;;;;;;72.32;41.25;;;4.10;99.90;;;;;;5073852;28;20298;-48
2022/11/24 04:08:04;;;;;;;72.32;40.90;;;4.60;99.90;;;;;;5073990;28;20234;-48
2022/11/24 04:10:34;;;;;;;64.20;40.55;;;4.60;99.90;;;;;;5073089;28;20256;-48
2022/11/24 04:13:00;;;;;;;65.90;38.53;;;4.20;99.90;;;;;;5073221;28;20220;-48
2022/11/24 04:15:27;;;;;;;68.53;38.93;;;4.70;99.90;;;;;;5073096;28;20259;-48
2022/11/24 04:17:55;;;;;;;65.55;40.25;;;4.00;99.90;;;;;;5072425;28;20200;-48
2022/11/24 04:20:22;;;;;;;77.30;40.28;;;3.90;99.90;;;;;;5054567;28;20214;-48
2022/11/24 04:22:50;;;;;;;63.90;37.83;;;4.50;99.90;;;;;;5073060;28;20226;-47
2022/11/24 04:25:17;;;;;;;69.95;38.85;;;3.90;99.90;;;;;;5073243;28;20784;-48
2022/11/24 04:27:45;;;;;;;70.95;40.78;;;4.50;99.90;;;;;;5072708;28;20227;-49
2022/11/24 04:30:12;;;;;;;69.55;40.22;;;4.70;99.90;;;;;;5054694;28;20245;-48
2022/11/24 04:32:38;;;;;;;72.68;39.53;;;4.50;99.90;;;;;;5072804;28;20207;-49
2022/11/24 04:35:06;;;;;;;69.03;40.20;;;4.70;99.90;;;;;;5072672;28;20207;-49
2022/11/24 04:37:33;;;;;;;74.68;39.72;;;4.70;99.90;;;;;;5072596;28;20202;-49
2022/11/24 04:40:00;;;;;;;58.78;37.50;;;4.40;99.90;;;;;;5071962;28;20192;-49
2022/11/24 04:42:26;;;;;;;61.50;37.92;;;4.00;99.90;;;;;;5072319;28;20557;-49
2022/11/24 04:44:55;;;;;;;62.67;36.95;;;4.50;99.90;;;;;;5072379;28;20231;-49
2022/11/24 04:47:23;;;;;;;60.03;36.22;;;4.50;99.90;;;;;;5072206;28;20631;-49
2022/11/24 04:49:50;;;;;;;66.43;37.10;;;4.50;99.90;;;;;;5071613;28;20286;-49
2022/11/24 04:52:19;;;;;;;65.90;38.13;;;4.30;99.90;;;;;;5072461;28;20195;-49
2022/11/24 04:54:45;;;;;;;68.38;37.95;;;4.50;99.90;;;;;;5072174;28;20649;-49
2022/11/24 04:57:16;;;;;;;73.60;37.42;;;4.30;99.90;;;;;;5071998;28;20269;-50
2022/11/24 04:59:43;;;;;;;65.40;38.95;;;4.40;99.90;;;;;;5071499;28;20253;-49
2022/11/24 05:02:11;;;;;;;68.00;37.03;;;4.60;99.90;;;;;;5071741;28;20199;-49
2022/11/24 05:04:38;;;;;;;65.10;38.22;;;4.60;99.90;;;;;;5071930;28;20223;-49
2022/11/24 05:07:05;;;;;;;63.50;37.70;;;3.80;99.90;;;;;;5072071;28;20194;-49
2022/11/24 05:09:31;;;;;;;64.50;36.63;;;4.50;99.90;;;;;;5071406;28;20202;-49
2022/11/24 05:11:58;;;;;;;63.28;38.00;;;4.40;99.90;;;;;;5072194;28;20618;-49
2022/11/24 05:14:25;;;;;;;61.53;35.50;;;4.40;99.90;;;;;;5072082;28;20564;-50
2022/11/24 05:16:51;;;;;;;59.72;34.42;;;4.40;99.90;;;;;;5071962;28;20556;-49
2022/11/24 05:19:19;;;;;;;58.05;34.53;;;4.40;99.90;;;;;;5071387;28;20195;-50
2022/11/24 05:21:46;;;;;;;63.03;35.58;;;4.30;99.90;;;;;;5071859;28;20195;-49
2022/11/24 05:24:12;;;;;;;60.33;36.65;;;4.30;99.90;;;;;;5071702;28;20218;-49
2022/11/24 05:26:39;;;;;;;61.88;36.35;;;4.40;99.90;;;;;;5071805;28;20209;-49
2022/11/24 05:29:06;;;;;;;65.00;36.58;;;4.50;99.90;;;;;;5070818;28;20206;-49
2022/11/24 05:31:32;;;;;;;70.10;37.22;;;4.60;99.90;;;;;;5072129;28;20559;-49
2022/11/24 05:33:59;;;;;;;65.75;36.15;;;4.30;99.90;;;;;;5071636;28;20652;-49
2022/11/24 05:39:11;;;;;;;71.47;35.83;;;5.00;99.90;;;;;;5071201;28;20227;-49
2022/11/24 05:41:37;;;;;;;67.95;37.63;;;4.40;99.90;;;;;;5071795;28;20202;-49
2022/11/24 05:44:04;;;;;;;66.07;36.63;;;4.60;99.90;;;;;;5071679;28;20219;-49
2022/11/24 05:46:31;;;;;;;63.78;36.13;;;4.40;99.90;;;;;;5071441;28;20217;-48
2022/11/24 05:48:57;;;;;;;65.88;33.15;;;4.20;99.90;;;;;;5070876;28;20598;-48
2022/11/24 05:51:24;;;;;;;61.50;36.08;;;4.30;99.90;;;;;;5071862;28;20199;-49
2022/11/24 05:53:52;;;;;;;60.10;35.53;;;4.70;99.90;;;;;;5071358;28;20199;-48
2022/11/24 05:56:18;;;;;;;55.30;34.22;;;4.70;99.90;;;;;;5071285;28;20298;-47
2022/11/24 05:58:45;;;;;;;63.65;36.25;;;4.70;99.90;;;;;;5071010;28;20214;-48
2022/11/24 06:01:11;;;;;;;57.30;35.38;;;4.70;99.90;;;;;;5071441;28;20199;-48
2022/11/24 06:03:38;;;;;;;58.72;33.10;;;4.40;99.90;;;;;;5071434;28;20223;-47
2022/11/24 06:06:05;;;;;;;48.50;30.35;;;4.30;99.90;;;;;;5071452;28;20215;-48
2022/11/24 06:08:31;;;;;;;58.67;31.77;;;4.50;99.90;;;;;;5070544;28;20203;-47
2022/11/24 06:11:15;;;;;;;55.92;32.55;;;5.00;99.90;;;;;;5071463;28;20202;-48
2022/11/24 06:13:42;;;;;;;56.88;32.92;;;3.90;99.90;;;;;;5071236;28;20194;-49
2022/11/24 06:16:09;;;;;;;63.25;34.42;;;4.20;99.90;;;;;;5071584;28;20223;-48
2022/11/24 06:18:36;;;;;;;53.38;31.63;;;4.60;99.90;;;;;;5070460;28;20210;-48
2022/11/24 06:21:02;;;;;;;52.58;31.33;;;4.20;99.90;;;;;;5071242;28;20192;-48
2022/11/24 06:23:29;;;;;;;52.83;31.63;;;4.50;99.90;;;;;;5070940;28;20296;-49
2022/11/24 06:25:57;;;;;;;61.53;32.03;;;4.30;99.90;;;;;;5071121;28;20594;-49
2022/11/24 06:28:25;;;;;;;52.25;31.02;;;4.50;99.90;;;;;;5070767;28;20591;-48
2022/11/24 06:30:51;;;;;;;60.70;34.15;;;4.30;99.90;;;;;;5070924;28;20210;-49
2022/11/24 06:33:18;;;;;;;57.80;32.88;;;4.60;99.90;;;;;;5053151;28;20203;-49
2022/11/24 06:35:45;;;;;;;63.83;33.33;;;4.30;99.90;;;;;;5070888;28;20242;-49
2022/11/24 06:38:12;;;;;;;49.28;30.75;;;4.30;99.90;;;;;;5071332;28;20279;-48
2022/11/24 06:40:38;;;;;;;65.18;32.78;;;4.40;99.90;;;;;;5071709;28;20195;-48
2022/11/24 06:43:05;;;;;;;71.53;32.90;;;4.20;99.90;;;;;;5074771;28;20245;-49
2022/11/24 06:45:34;;;;;;;58.17;32.08;;;4.40;99.90;;;;;;5074073;28;20232;-49
2022/11/24 06:48:00;;;;;;;65.45;33.58;;;4.50;99.90;;;;;;5073855;28;20570;-48
2022/11/24 06:50:27;;;;;;;52.00;30.35;;;4.60;99.90;;;;;;5073292;28;20205;-48
2022/11/24 06:52:54;;;;;;;60.10;32.83;;;4.50;99.90;;;;;;5056168;28;20604;-48
2022/11/24 06:55:21;;;;;;;54.63;31.20;;;4.60;99.90;;;;;;5073822;28;20714;-49
2022/11/24 06:57:47;;;;;;;72.13;35.85;;;4.20;99.90;;;;;;5074179;28;20195;-48
2022/11/24 07:00:15;;;;;;;62.40;33.60;;;3.90;99.90;;;;;;5073376;28;20556;-48
2022/11/24 07:02:43;;;;;;;62.88;33.15;;;4.70;99.90;;;;;;5074086;28;20290;-48
2022/11/24 07:05:09;;;;;;;51.67;31.40;;;4.30;99.90;;;;;;5073910;28;20405;-49
2022/11/24 07:07:36;;;;;;;56.33;31.33;;;4.50;99.90;;;;;;5074226;28;20278;-49
2022/11/24 07:10:03;;;;;;;56.63;33.08;;;4.70;99.90;;;;;;5073429;28;20191;-48
2022/11/24 07:12:33;;;;;;;55.05;30.55;;;4.50;99.90;;;;;;5056325;28;20199;-49
2022/11/24 07:15:00;;;;;;;52.25;30.17;;;3.90;99.90;;;;;;5073789;28;20215;-48
2022/11/24 07:17:27;;;;;;;54.65;30.40;;;4.40;99.90;;;;;;5073863;28;20813;-50
2022/11/24 07:19:54;;;;;;;48.10;31.08;;;4.70;99.90;;;;;;5073062;28;20191;-49
2022/11/24 07:22:21;;;;;;;52.40;31.73;;;4.80;99.90;;;;;;5073795;28;20198;-49
2022/11/24 07:24:48;;;;;;;49.97;30.30;;;4.60;99.90;;;;;;5073369;28;20673;-49
2022/11/24 07:27:14;;;;;;;49.75;28.98;;;4.50;99.90;;;;;;5073505;28;20672;-49
2022/11/24 07:29:41;;;;;;;48.40;29.42;;;5.30;99.90;;;;;;5072550;28;20199;-48
2022/11/24 07:32:07;;;;;;;53.22;30.98;;;4.60;99.90;;;;;;5073608;28;20199;-49
2022/11/24 07:34:34;;;;;;;57.75;31.58;;;5.00;99.90;;;;;;5073286;28;20211;-48
2022/11/24 07:37:02;;;;;;;52.50;33.50;;;4.70;99.90;;;;;;5073222;28;20609;-48
2022/11/24 07:39:29;;;;;;;47.53;30.95;;;4.60;99.90;;;;;;5072485;28;20195;-49
2022/11/24 07:41:55;;;;;;;50.95;31.92;;;4.70;99.90;;;;;;5055073;28;20290;-49
2022/11/24 07:44:22;;;;;;;51.33;30.92;;;4.60;99.90;;;;;;5072877;28;20570;-48
2022/11/24 07:46:50;;;;;;;45.13;29.77;;;4.70;99.90;;;;;;5073349;28;20199;-49
2022/11/24 07:49:16;;;;;;;47.45;28.13;;;4.10;99.90;;;;;;5072086;28;20199;-49
2022/11/24 07:51:43;;;;;;;48.85;30.80;;;4.60;99.90;;;;;;5072493;28;20298;-49
2022/11/24 07:54:11;;;;;;;50.05;29.75;;;4.90;99.90;;;;;;5072820;28;20195;-49
2022/11/24 07:56:38;;;;;;;47.95;31.60;;;4.70;99.90;;;;;;5072952;28;20659;-49
2022/11/24 07:59:04;;;;;;;53.65;33.03;;;4.50;99.90;;;;;;5072271;28;20579;-49
2022/11/24 08:01:31;;;;;;;50.28;30.50;;;4.70;99.90;;;;;;5072853;28;20566;-49
2022/11/24 08:03:58;;;;;;;52.55;30.55;;;4.90;99.90;;;;;;5072326;28;20774;-49
2022/11/24 08:06:24;;;;;;;47.88;31.15;;;4.80;99.90;;;;;;5072467;28;20246;-49
2022/11/24 08:08:51;;;;;;;49.63;30.52;;;4.90;99.90;;;;;;5071402;28;20214;-50
2022/11/24 08:11:19;;;;;;;47.58;28.55;;;4.90;99.90;;;;;;5072728;28;20192;-50
2022/11/24 08:13:46;;;;;;;45.45;28.20;;;4.70;99.90;;;;;;5072459;28;20285;-49
2022/11/24 08:16:14;;;;;;;48.97;32.03;;;5.40;99.90;;;;;;5072578;28;20575;-48
2022/11/24 08:18:41;;;;;;;58.53;36.10;;;4.80;99.90;;;;;;5071936;28;20242;-48
2022/11/24 08:21:11;;;;;;;48.47;31.23;;;4.80;99.90;;;;;;5072395;28;20195;-49
2022/11/24 08:23:38;;;;;;;53.25;32.15;;;5.20;99.90;;;;;;5072579;28;20656;-48
2022/11/24 08:26:07;;;;;;;51.47;31.48;;;4.80;99.90;;;;;;5071802;28;20223;-51
2022/11/24 08:28:36;;;;;;;57.83;32.80;;;5.00;99.90;;;;;;5071633;28;20280;-49
2022/11/24 08:31:05;;;;;;;49.17;32.42;;;5.60;99.90;;;;;;5072441;28;20203;-49
2022/11/24 08:33:31;;;;;;;49.88;31.38;;;5.10;99.90;;;;;;5072038;28;20412;-49
2022/11/24 08:36:03;;;;;;;54.05;32.33;;;5.00;99.90;;;;;;5071659;28;20208;-49
2022/11/24 08:38:30;;;;;;;61.20;31.63;;;4.90;99.90;;;;;;5071504;28;20199;-48
2022/11/24 08:41:00;;;;;;;52.58;32.47;;;5.10;99.90;;;;;;5071938;28;20215;-49
2022/11/24 08:43:28;;;;;;;50.08;31.70;;;5.00;99.90;;;;;;5071454;28;20227;-49
2022/11/24 08:45:59;;;;;;;57.67;32.83;;;4.90;99.90;;;;;;5054192;28;20241;-49
2022/11/24 08:48:26;;;;;;;48.58;32.08;;;5.40;99.90;;;;;;5053414;28;20196;-48
2022/11/24 08:50:53;;;;;;;46.58;29.80;;;5.70;99.90;;;;;;5071891;28;20200;-48
2022/11/24 08:53:19;;;;;;;43.10;29.33;;;5.30;99.90;;;;;;5071900;28;20203;-49
2022/11/24 08:55:46;;;;;;;45.42;29.75;;;5.20;99.90;;;;;;5071734;28;20253;-48
2022/11/24 08:58:12;;;;;;;41.38;27.85;;;5.10;99.90;;;;;;5071917;28;20278;-48
2022/11/24 09:00:39;;;;;;;40.67;29.27;;;5.10;99.90;;;;;;5071162;28;20228;-48
2022/11/24 09:03:07;;;;;;;45.33;29.95;;;4.80;99.90;;;;;;5071634;28;20564;-49
2022/11/24 09:05:33;;;;;;;46.15;30.10;;;5.40;99.90;;;;;;5071397;28;20596;-49
2022/11/24 09:08:00;;;;;;;42.78;28.73;;;4.70;99.90;;;;;;5071521;28;20199;-49
2022/11/24 09:10:27;;;;;;;45.70;30.83;;;5.20;99.90;;;;;;5070981;28;20563;-48
2022/11/24 09:12:53;;;;;;;41.90;29.77;;;6.10;99.90;;;;;;5053478;28;20546;-48
2022/11/24 09:15:20;;;;;;;44.80;29.42;;;5.10;99.90;;;;;;5071894;28;20233;-48
2022/11/24 09:17:46;;;;;;;39.28;28.10;;;5.50;99.90;;;;;;5072019;28;20200;-48
2022/11/24 09:20:15;;;;;;;40.22;28.30;;;5.30;99.90;;;;;;5070812;28;20237;-48
2022/11/24 09:22:42;;;;;;;47.40;30.67;;;5.40;99.90;;;;;;5071616;28;20208;-48
2022/11/24 09:25:09;;;;;;;41.63;28.57;;;5.50;99.90;;;;;;5071428;28;20227;-49
2022/11/24 09:27:36;;;;;;;41.63;29.63;;;5.80;99.90;;;;;;5053739;28;20942;-50
2022/11/24 09:30:03;;;;;;;47.40;33.17;;;4.90;99.90;;;;;;5070890;28;20192;-50
2022/11/24 09:32:30;;;;;;;43.90;29.60;;;5.70;99.90;;;;;;5071373;28;20187;-50
2022/11/24 09:34:57;;;;;;;44.65;30.65;;;5.50;99.90;;;;;;5053366;28;20223;-49
2022/11/24 09:37:25;;;;;;;49.90;34.05;;;5.60;99.90;;;;;;5071250;28;20224;-49
2022/11/24 09:39:52;;;;;;;52.10;32.35;;;5.60;99.90;;;;;;5070158;28;20187;-48
2022/11/24 09:42:30;;;;;;;42.33;28.80;;;5.60;99.90;;;;;;5053292;28;20557;-49
2022/11/24 09:45:19;;;;;;;45.40;31.23;;;5.80;99.90;;;;;;5071154;28;20264;-49
2022/11/24 09:47:55;;;;;;;44.42;29.45;;;5.40;99.90;;;;;;5071296;28;20933;-48
2022/11/24 09:50:25;;;;;;;48.53;32.03;;;5.90;99.90;;;;;;5071047;28;20196;-49
2022/11/24 09:53:00;;;;;;;43.20;29.73;;;5.80;99.90;;;;;;5071283;28;20443;-49
2022/11/24 09:55:40;;;;;;;44.77;30.23;;;5.80;99.90;;;;;;5071222;28;20211;-48
2022/11/24 09:58:21;;;;;;;44.13;31.95;;;6.10;99.90;;;;;;5070818;28;20452;-47
2022/11/24 10:00:52;;;;;;;45.42;32.00;;;5.80;99.90;;;;;;5070856;28;20199;-49
2022/11/24 10:03:25;;;;;;;51.57;31.43;;;5.80;99.90;;;;;;5071550;28;20208;-48
2022/11/24 10:05:53;;;;;;;57.15;36.17;;;6.10;99.90;;;;;;5070964;28;20470;-48
2022/11/24 10:08:39;;;;;;;52.25;35.13;;;6.10;99.90;;;;;;5071117;28;20200;-47
2022/11/24 10:11:12;;;;;;;50.17;33.20;;;6.10;99.90;;;;;;5071253;28;20192;-48
2022/11/24 10:14:00;;;;;;;50.73;33.63;;;6.20;99.90;;;;;;5071308;28;20219;-48
2022/11/24 10:16:38;;;;;;;48.53;32.93;;;6.00;99.90;;;;;;5073458;28;20474;-49
2022/11/24 10:19:14;;;;;;;47.17;33.17;;;6.10;99.90;;;;;;5073723;28;20445;-48
2022/11/24 10:21:55;;;;;;;49.45;34.40;;;6.10;99.90;;;;;;5074571;28;20425;-48
2022/11/24 10:24:52;;;;;;;48.17;33.10;;;6.70;99.90;;;;;;5074089;28;20285;-49
2022/11/24 10:27:23;;;;;;;48.28;33.50;;;6.30;99.90;;;;;;5079708;22;20451;-45
2022/11/24 10:29:52;;;;;;;44.00;32.07;;;6.40;99.90;;;;;;5052643;28;20201;-43
2022/11/24 10:32:24;;;;;;;45.67;30.53;;;6.20;99.90;;;;;;5054732;28;20413;-45
2022/11/24 10:34:50;;;;;;;43.30;31.33;;;6.40;99.90;;;;;;5034657;28;20433;-44
2022/11/24 10:37:22;;;;;;;42.37;31.37;;;6.70;99.90;;;;;;5034160;28;20423;-45
2022/11/24 10:39:59;;;;;;;38.53;27.90;;;6.30;99.90;;;;;;5033723;28;20413;-46
2022/11/24 10:42:28;;;;;;;43.37;29.57;;;6.50;99.90;;;;;;5034491;28;20432;-44
2022/11/24 10:45:02;;;;;;;47.07;29.63;;;6.70;99.90;;;;;;5016569;28;20451;-43
2022/11/24 10:47:30;;;;;;;37.40;28.60;;;6.70;99.90;;;;;;5034816;28;20452;-44
2022/11/24 10:50:00;;;;;;;38.03;27.63;;;6.80;99.90;;;;;;5038090;28;20540;-45
2022/11/24 10:52:29;;;;;;;41.90;29.10;;;6.70;99.90;;;;;;5054786;28;20471;-44
2022/11/24 10:55:00;;;;;;;35.40;28.90;;;6.80;99.90;;;;;;5054744;28;20799;-45
2022/11/24 10:57:29;;;;;;;39.67;28.17;;;6.70;99.90;;;;;;5053963;28;20430;-43
2022/11/24 10:59:56;;;;;;;43.43;28.03;;;6.70;99.90;;;;;;5052235;28;20453;-45
2022/11/24 11:02:35;;;;;;;41.80;28.70;;;6.40;99.90;;;;;;5053249;28;20492;-44
2022/11/24 11:05:25;;;;;;;38.83;28.73;;;6.60;99.90;;;;;;5054251;28;21014;-45
2022/11/24 11:08:14;;;;;;;45.77;30.80;;;6.60;99.90;;;;;;5054537;28;20757;-46
2022/11/24 11:10:43;;;;;;;35.53;27.97;;;6.40;99.90;;;;;;5053317;28;20510;-45
2022/11/24 11:13:24;;;;;;;44.37;30.40;;;6.50;99.90;;;;;;5054009;28;20955;-43
2022/11/24 11:15:51;;;;;;;36.70;27.77;;;6.40;99.90;;;;;;5054267;28;20458;-43
2022/11/24 11:18:19;;;;;;;40.67;29.73;;;6.70;99.90;;;;;;5054339;28;20443;-45
2022/11/24 11:20:52;;;;;;;39.33;28.87;;;7.00;99.90;;;;;;5054056;28;20443;-44
2022/11/24 11:23:27;;;;;;;41.03;30.87;;;6.60;99.90;;;;;;5053954;28;20901;-44
2022/11/24 11:26:29;;;;;;;41.23;30.23;;;6.90;99.90;;;;;;5052505;28;20515;-43
2022/11/24 11:28:59;;;;;;;42.90;29.37;;;6.90;99.90;;;;;;5034885;28;20456;-45
2022/11/24 11:31:27;;;;;;;39.97;29.60;;;7.10;99.90;;;;;;5053238;28;20854;-44
2022/11/24 11:33:57;;;;;;;35.73;28.40;;;7.20;99.90;;;;;;5052679;28;20914;-44
2022/11/24 11:36:24;;;;;;;37.17;28.80;;;7.20;99.90;;;;;;5052741;28;20460;-45
2022/11/24 11:38:52;;;;;;;36.03;27.47;;;7.10;99.90;;;;;;5052482;28;20859;-43
2022/11/24 11:41:25;;;;;;;40.67;30.83;;;7.40;99.90;;;;;;5052901;28;20414;-44
2022/11/24 11:44:00;;;;;;;38.77;29.70;;;7.30;99.90;;;;;;5052689;28;20536;-44
2022/11/24 11:46:30;;;;;;;40.70;29.80;;;7.40;99.90;;;;;;5052933;28;21006;-45
2022/11/24 11:48:57;;;;;;;40.67;28.73;;;7.40;99.90;;;;;;5034667;28;20420;-44
2022/11/24 11:51:34;;;;;;;38.10;29.10;;;7.50;99.90;;;;;;5053221;28;20410;-44
2022/11/24 11:54:09;;;;;;;39.30;29.23;;;7.60;99.90;;;;;;5053229;28;20748;-45
2022/11/24 11:56:43;;;;;;;37.83;29.03;;;7.50;99.90;;;;;;5052683;28;20434;-44
2022/11/24 11:59:32;;;;;;;39.60;28.47;;;7.50;99.90;;;;;;5052295;28;20404;-45
2022/11/24 12:02:28;;;;;;;38.30;28.93;;;7.40;99.90;;;;;;5053276;28;20515;-46
2022/11/24 12:04:59;;;;;;;40.87;29.60;;;7.50;99.90;;;;;;5035419;28;20463;-45
2022/11/24 12:07:51;;;;;;;41.60;31.07;;;7.40;99.90;;;;;;5054933;28;20938;-45
2022/11/24 12:10:28;;;;;;;37.80;28.90;;;7.60;99.90;;;;;;5053577;28;20966;-44
2022/11/24 12:13:32;;;;;;;38.03;29.27;;;7.70;99.90;;;;;;5052742;28;20923;-44
2022/11/24 12:16:08;;;;;;;46.50;31.07;;;7.70;99.90;;;;;;5037359;28;20485;-44
2022/11/24 12:18:42;;;;;;;46.70;30.93;;;8.10;99.90;;;;;;5051725;28;20449;-44
2022/11/24 12:21:17;;;;;;;46.37;31.97;;;7.40;99.90;;;;;;5052947;28;20474;-43
2022/11/24 12:23:55;;;;;;;38.43;30.43;;;7.30;99.90;;;;;;5052730;28;20886;-45
2022/11/24 12:26:29;;;;;;;39.57;29.43;;;7.00;99.90;;;;;;5052117;28;20794;-46
2022/11/24 12:29:08;;;;;;;38.90;31.60;;;7.20;99.90;;;;;;5051599;28;20411;-44
2022/11/24 12:31:45;;;;;;;40.30;29.60;;;7.20;99.90;;;;;;5046006;28;20803;-43
2022/11/24 12:34:39;;;;;;;41.22;32.40;;;7.40;99.90;;;;;;5032112;28;20457;-46
2022/11/24 12:37:32;;;;;;;39.67;31.47;;;7.40;99.90;;;;;;5050766;28;20214;-44
2022/11/24 12:40:04;;;;;;;42.53;29.77;;;7.40;99.90;;;;;;5049570;28;20418;-44
2022/11/24 12:42:40;;;;;;;43.60;31.03;;;6.60;99.90;;;;;;5050111;28;20921;-43
2022/11/24 12:45:14;;;;;;;41.03;29.60;;;7.50;99.90;;;;;;5056359;28;20443;-45
2022/11/24 12:48:18;;;;;;;43.47;30.97;;;7.30;99.90;;;;;;5039425;28;20452;-44
2022/11/24 12:50:45;;;;;;;38.40;30.17;;;7.10;99.90;;;;;;5046958;28;20866;-43